createdAt,value
2018-01-16T00:02:34.415Z,18.23
2018-01-16T00:17:34.930Z,16.23
2018-01-16T00:32:35.717Z,18.43
2018-01-16T00:47:34.264Z,19.37
2018-01-16T01:02:36.929Z,18.43
2018-01-16T01:17:34.616Z,20.10
2018-01-16T01:32:34.505Z,17.90
2018-01-16T01:47:34.414Z,19.10
2018-01-16T02:02:34.359Z,18.07
2018-01-16T02:17:34.372Z,17.30
2018-01-16T02:32:34.715Z,18.60
2018-01-16T02:47:34.685Z,19.20
2018-01-16T03:02:34.574Z,18.53
2018-01-16T03:17:34.596Z,18.80
2018-01-16T03:32:34.955Z,20.10
2018-01-16T03:47:35.517Z,18.33
2018-01-16T04:02:34.762Z,19.03
2018-01-16T04:17:54.768Z,21.80
2018-01-16T04:32:37.208Z,21.40
2018-01-16T04:47:35.470Z,20.00
2018-01-16T05:02:35.556Z,20.00
2018-01-16T05:17:39.238Z,19.13
2018-01-16T05:32:34.425Z,20.77
2018-01-16T05:47:34.408Z,21.83
2018-01-16T06:02:36.279Z,23.53
2018-01-16T06:17:35.817Z,25.73
2018-01-16T06:32:36.612Z,22.70
2018-01-16T06:47:36.562Z,22.47
2018-01-16T07:02:34.402Z,24.03
2018-01-16T07:17:37.486Z,33.93
2018-01-16T07:32:34.811Z,33.43
2018-01-16T07:47:34.779Z,34.43
2018-01-16T08:02:34.688Z,36.30
2018-01-16T08:17:36.635Z,39.20
2018-01-16T08:32:36.524Z,36.47
2018-01-16T08:47:35.988Z,35.03
2018-01-16T09:02:34.365Z,36.20
2018-01-16T09:17:34.178Z,38.37
2018-01-16T09:32:34.195Z,39.20
2018-01-16T09:47:34.680Z,42.53
2018-01-16T10:02:34.687Z,37.73
2018-01-16T10:17:39.578Z,27.43
2018-01-16T10:32:48.303Z,32.20
2018-01-16T10:47:36.811Z,28.43
2018-01-16T11:02:35.305Z,28.10
2018-01-16T11:17:35.647Z,33.23
2018-01-16T11:32:38.687Z,28.30
2018-01-16T11:47:36.128Z,27.33
2018-01-16T12:02:36.109Z,45.90
2018-01-16T12:17:35.090Z,50.90
2018-01-16T12:32:34.911Z,54.43
2018-01-16T12:47:36.362Z,61.83
2018-01-16T13:02:34.781Z,55.30
2018-01-16T13:17:35.832Z,53.83
2018-01-16T13:32:35.085Z,53.13
2018-01-16T13:47:36.065Z,46.03
2018-01-16T14:02:35.837Z,40.07
2018-01-16T14:17:36.875Z,31.67
2018-01-16T14:32:34.296Z,34.50
2018-01-16T14:47:35.555Z,46.57
2018-01-16T15:02:36.080Z,50.83
2018-01-16T15:17:33.726Z,45.80
2018-01-16T15:32:37.091Z,46.77
2018-01-16T15:47:36.106Z,50.40
2018-01-16T16:02:38.864Z,48.97
2018-01-16T16:17:35.198Z,44.80
2018-01-16T16:32:36.239Z,45.50
2018-01-16T16:47:35.737Z,46.47
2018-01-16T17:02:35.434Z,48.83
2018-01-16T17:17:36.486Z,48.00
2018-01-16T17:32:48.467Z,59.30
2018-01-16T17:47:33.730Z,66.03
2018-01-16T18:02:34.939Z,63.50
2018-01-16T18:17:34.904Z,53.23
2018-01-16T18:32:32.999Z,28.67
2018-01-16T18:47:33.549Z,52.27
2018-01-16T19:17:35.051Z,53.47
2018-01-16T19:32:37.836Z,50.03
2018-01-16T20:02:39.720Z,42.23
2018-01-16T20:32:41.255Z,6.67
2018-01-16T21:02:40.590Z,2.40
2018-01-16T21:32:40.380Z,27.97
2018-01-16T21:47:38.418Z,18.13
2018-01-16T22:02:38.987Z,18.83
2018-01-16T22:17:35.278Z,13.53
2018-01-16T22:32:36.057Z,12.00
2018-01-16T22:47:34.843Z,12.63
2018-01-16T23:02:36.372Z,11.37
2018-01-16T23:17:34.473Z,12.60
2018-01-16T23:32:34.737Z,11.23
2018-01-16T23:47:34.752Z,11.90
